sensor_id;sensor_type;location;lat;lon;timestamp;P1;durP1;ratioP1;P2;durP2;ratioP2
21334;SDS011;69435;52.670;13.544;2023-07-31T00:00:09;2.50;;;2.30;;
21334;SDS011;69435;52.670;13.544;2023-07-31T00:02:55;3.23;;;2.30;;
21334;SDS011;69435;52.670;13.544;2023-07-31T00:05:41;5.43;;;2.00;;
21334;SDS011;69435;52.670;13.544;2023-07-31T00:08:27;2.57;;;2.37;;
21334;SDS011;69435;52.670;13.544;2023-07-31T00:11:13;3.40;;;1.97;;
21334;SDS011;69435;52.670;13.544;2023-07-31T00:13:59;2.57;;;2.10;;
21334;SDS011;69435;52.670;13.544;2023-07-31T00:16:45;1.90;;;1.80;;
21334;SDS011;69435;52.670;13.544;2023-07-31T00:19:31;2.90;;;2.13;;
21334;SDS011;69435;52.670;13.544;2023-07-31T00:22:17;3.00;;;2.40;;
21334;SDS011;69435;52.670;13.544;2023-07-31T00:25:03;2.43;;;2.20;;
21334;SDS011;69435;52.670;13.544;2023-07-31T00:27:51;2.10;;;1.90;;
21334;SDS011;69435;52.670;13.544;2023-07-31T00:30:37;2.13;;;2.03;;
21334;SDS011;69435;52.670;13.544;2023-07-31T00:33:23;2.33;;;2.13;;
21334;SDS011;69435;52.670;13.544;2023-07-31T00:36:09;3.97;;;2.50;;
21334;SDS011;69435;52.670;13.544;2023-07-31T00:38:55;2.80;;;2.47;;
21334;SDS011;69435;52.670;13.544;2023-07-31T00:41:41;5.90;;;2.33;;
21334;SDS011;69435;52.670;13.544;2023-07-31T00:44:27;2.20;;;1.97;;
21334;SDS011;69435;52.670;13.544;2023-07-31T00:47:13;2.83;;;2.40;;
21334;SDS011;69435;52.670;13.544;2023-07-31T00:49:59;3.43;;;2.10;;
21334;SDS011;69435;52.670;13.544;2023-07-31T00:52:45;4.20;;;2.37;;
21334;SDS011;69435;52.670;13.544;2023-07-31T00:55:31;6.40;;;2.27;;
21334;SDS011;69435;52.670;13.544;2023-07-31T00:58:18;2.37;;;2.17;;
21334;SDS011;69435;52.670;13.544;2023-07-31T01:01:03;2.20;;;2.00;;
21334;SDS011;69435;52.670;13.544;2023-07-31T01:03:50;3.90;;;2.10;;
21334;SDS011;69435;52.670;13.544;2023-07-31T01:12:56;2.87;;;2.27;;
21334;SDS011;69435;52.670;13.544;2023-07-31T01:15:43;3.70;;;2.20;;
21334;SDS011;69435;52.670;13.544;2023-07-31T01:18:29;5.10;;;2.23;;
21334;SDS011;69435;52.670;13.544;2023-07-31T01:24:48;3.43;;;2.30;;
21334;SDS011;69435;52.670;13.544;2023-07-31T01:27:59;2.47;;;2.27;;
21334;SDS011;69435;52.670;13.544;2023-07-31T01:30:49;6.00;;;3.00;;
21334;SDS011;69435;52.670;13.544;2023-07-31T01:33:36;3.77;;;2.50;;
21334;SDS011;69435;52.670;13.544;2023-07-31T01:36:23;3.77;;;2.20;;
21334;SDS011;69435;52.670;13.544;2023-07-31T01:39:10;3.37;;;2.40;;
21334;SDS011;69435;52.670;13.544;2023-07-31T01:41:56;3.33;;;2.23;;
21334;SDS011;69435;52.670;13.544;2023-07-31T01:44:42;3.87;;;2.40;;
21334;SDS011;69435;52.670;13.544;2023-07-31T01:47:28;4.97;;;2.30;;
21334;SDS011;69435;52.670;13.544;2023-07-31T01:50:14;3.33;;;1.73;;
21334;SDS011;69435;52.670;13.544;2023-07-31T01:53:00;4.40;;;2.20;;
21334;SDS011;69435;52.670;13.544;2023-07-31T01:55:46;2.63;;;1.83;;
21334;SDS011;69435;52.670;13.544;2023-07-31T01:58:32;2.20;;;2.10;;
21334;SDS011;69435;52.670;13.544;2023-07-31T02:01:18;2.20;;;2.00;;
21334;SDS011;69435;52.670;13.544;2023-07-31T02:04:04;5.90;;;2.60;;
21334;SDS011;69435;52.670;13.544;2023-07-31T02:06:50;2.37;;;2.17;;
21334;SDS011;69435;52.670;13.544;2023-07-31T02:09:36;3.17;;;2.70;;
21334;SDS011;69435;52.670;13.544;2023-07-31T02:12:22;5.40;;;2.40;;
21334;SDS011;69435;52.670;13.544;2023-07-31T02:15:08;3.60;;;2.73;;
21334;SDS011;69435;52.670;13.544;2023-07-31T02:17:54;5.40;;;2.30;;
21334;SDS011;69435;52.670;13.544;2023-07-31T02:20:40;2.70;;;2.50;;
21334;SDS011;69435;52.670;13.544;2023-07-31T02:23:28;4.30;;;2.60;;
21334;SDS011;69435;52.670;13.544;2023-07-31T02:26:14;3.53;;;3.13;;
21334;SDS011;69435;52.670;13.544;2023-07-31T02:29:00;6.30;;;2.77;;
21334;SDS011;69435;52.670;13.544;2023-07-31T02:31:46;4.00;;;2.20;;
21334;SDS011;69435;52.670;13.544;2023-07-31T02:34:33;3.40;;;3.13;;
21334;SDS011;69435;52.670;13.544;2023-07-31T02:37:19;4.93;;;2.87;;
21334;SDS011;69435;52.670;13.544;2023-07-31T02:40:06;6.07;;;2.90;;
21334;SDS011;69435;52.670;13.544;2023-07-31T02:42:52;3.47;;;3.27;;
21334;SDS011;69435;52.670;13.544;2023-07-31T02:45:38;4.90;;;2.50;;
21334;SDS011;69435;52.670;13.544;2023-07-31T02:48:24;6.80;;;3.30;;
21334;SDS011;69435;52.670;13.544;2023-07-31T02:51:10;3.23;;;2.70;;
21334;SDS011;69435;52.670;13.544;2023-07-31T02:53:56;3.23;;;2.80;;
21334;SDS011;69435;52.670;13.544;2023-07-31T02:56:42;3.97;;;3.00;;
21334;SDS011;69435;52.670;13.544;2023-07-31T02:59:28;3.40;;;2.80;;
21334;SDS011;69435;52.670;13.544;2023-07-31T03:02:14;3.27;;;2.97;;
21334;SDS011;69435;52.670;13.544;2023-07-31T03:05:00;6.00;;;3.10;;
21334;SDS011;69435;52.670;13.544;2023-07-31T03:07:46;4.13;;;2.77;;
21334;SDS011;69435;52.670;13.544;2023-07-31T03:10:32;5.73;;;2.67;;
21334;SDS011;69435;52.670;13.544;2023-07-31T03:13:18;4.73;;;3.03;;
21334;SDS011;69435;52.670;13.544;2023-07-31T03:16:04;4.80;;;2.73;;
21334;SDS011;69435;52.670;13.544;2023-07-31T03:18:51;4.90;;;3.30;;
21334;SDS011;69435;52.670;13.544;2023-07-31T03:21:38;4.67;;;2.90;;
21334;SDS011;69435;52.670;13.544;2023-07-31T03:24:25;4.87;;;2.60;;
21334;SDS011;69435;52.670;13.544;2023-07-31T03:27:11;3.47;;;3.10;;
21334;SDS011;69435;52.670;13.544;2023-07-31T03:29:59;7.07;;;2.83;;
21334;SDS011;69435;52.670;13.544;2023-07-31T03:32:46;4.50;;;2.77;;
21334;SDS011;69435;52.670;13.544;2023-07-31T03:35:32;5.00;;;3.17;;
21334;SDS011;69435;52.670;13.544;2023-07-31T03:38:18;6.50;;;3.00;;
21334;SDS011;69435;52.670;13.544;2023-07-31T03:41:04;3.27;;;2.97;;
21334;SDS011;69435;52.670;13.544;2023-07-31T03:43:51;3.30;;;3.00;;
21334;SDS011;69435;52.670;13.544;2023-07-31T03:46:37;3.50;;;3.20;;
21334;SDS011;69435;52.670;13.544;2023-07-31T03:49:23;2.63;;;2.43;;
21334;SDS011;69435;52.670;13.544;2023-07-31T03:52:09;7.80;;;3.10;;
21334;SDS011;69435;52.670;13.544;2023-07-31T03:54:55;8.17;;;3.10;;
21334;SDS011;69435;52.670;13.544;2023-07-31T03:57:42;5.97;;;3.80;;
21334;SDS011;69435;52.670;13.544;2023-07-31T04:00:29;4.33;;;3.37;;
21334;SDS011;69435;52.670;13.544;2023-07-31T04:03:15;5.80;;;3.60;;
21334;SDS011;69435;52.670;13.544;2023-07-31T04:06:01;5.57;;;3.63;;
21334;SDS011;69435;52.670;13.544;2023-07-31T04:08:47;4.00;;;3.70;;
21334;SDS011;69435;52.670;13.544;2023-07-31T04:11:33;4.37;;;3.20;;
21334;SDS011;69435;52.670;13.544;2023-07-31T04:14:19;4.93;;;3.83;;
21334;SDS011;69435;52.670;13.544;2023-07-31T04:17:05;5.47;;;4.00;;
21334;SDS011;69435;52.670;13.544;2023-07-31T04:19:51;7.23;;;3.87;;
21334;SDS011;69435;52.670;13.544;2023-07-31T04:22:37;9.40;;;4.43;;
21334;SDS011;69435;52.670;13.544;2023-07-31T04:25:23;3.73;;;3.43;;
21334;SDS011;69435;52.670;13.544;2023-07-31T04:28:09;6.03;;;4.10;;
21334;SDS011;69435;52.670;13.544;2023-07-31T04:30:55;4.87;;;4.57;;
21334;SDS011;69435;52.670;13.544;2023-07-31T04:33:41;8.93;;;4.87;;
21334;SDS011;69435;52.670;13.544;2023-07-31T04:36:27;4.87;;;4.40;;
21334;SDS011;69435;52.670;13.544;2023-07-31T04:39:13;4.80;;;4.30;;
21334;SDS011;69435;52.670;13.544;2023-07-31T04:41:59;7.87;;;5.20;;
21334;SDS011;69435;52.670;13.544;2023-07-31T04:44:45;5.13;;;4.67;;
21334;SDS011;69435;52.670;13.544;2023-07-31T04:47:31;5.17;;;4.57;;
21334;SDS011;69435;52.670;13.544;2023-07-31T04:50:17;10.30;;;4.53;;
21334;SDS011;69435;52.670;13.544;2023-07-31T04:53:03;5.33;;;4.83;;
21334;SDS011;69435;52.670;13.544;2023-07-31T04:55:49;6.73;;;5.10;;
21334;SDS011;69435;52.670;13.544;2023-07-31T04:58:35;10.80;;;4.60;;
21334;SDS011;69435;52.670;13.544;2023-07-31T05:01:21;5.20;;;4.63;;
21334;SDS011;69435;52.670;13.544;2023-07-31T05:04:07;5.97;;;4.70;;
21334;SDS011;69435;52.670;13.544;2023-07-31T05:06:53;6.47;;;5.10;;
21334;SDS011;69435;52.670;13.544;2023-07-31T05:09:39;4.90;;;4.40;;
21334;SDS011;69435;52.670;13.544;2023-07-31T05:12:24;4.50;;;4.10;;
21334;SDS011;69435;52.670;13.544;2023-07-31T05:15:10;4.63;;;4.23;;
21334;SDS011;69435;52.670;13.544;2023-07-31T05:17:56;5.00;;;4.50;;
21334;SDS011;69435;52.670;13.544;2023-07-31T05:20:42;5.90;;;4.37;;
21334;SDS011;69435;52.670;13.544;2023-07-31T05:23:28;6.00;;;4.63;;
21334;SDS011;69435;52.670;13.544;2023-07-31T05:26:16;5.73;;;5.00;;
21334;SDS011;69435;52.670;13.544;2023-07-31T05:29:03;6.10;;;4.70;;
21334;SDS011;69435;52.670;13.544;2023-07-31T05:31:49;10.10;;;5.03;;
21334;SDS011;69435;52.670;13.544;2023-07-31T05:34:35;5.83;;;4.60;;
21334;SDS011;69435;52.670;13.544;2023-07-31T05:37:21;5.83;;;4.70;;
21334;SDS011;69435;52.670;13.544;2023-07-31T05:40:07;4.97;;;4.37;;
21334;SDS011;69435;52.670;13.544;2023-07-31T05:42:54;4.70;;;4.30;;
21334;SDS011;69435;52.670;13.544;2023-07-31T05:45:40;5.00;;;4.53;;
21334;SDS011;69435;52.670;13.544;2023-07-31T05:48:27;7.07;;;4.80;;
21334;SDS011;69435;52.670;13.544;2023-07-31T05:51:13;5.10;;;4.17;;
21334;SDS011;69435;52.670;13.544;2023-07-31T05:53:59;5.77;;;4.10;;
21334;SDS011;69435;52.670;13.544;2023-07-31T05:56:45;5.97;;;4.33;;
21334;SDS011;69435;52.670;13.544;2023-07-31T05:59:31;5.33;;;4.83;;
21334;SDS011;69435;52.670;13.544;2023-07-31T06:02:18;9.63;;;5.10;;
21334;SDS011;69435;52.670;13.544;2023-07-31T06:05:05;5.50;;;4.30;;
21334;SDS011;69435;52.670;13.544;2023-07-31T06:07:52;4.80;;;4.40;;
21334;SDS011;69435;52.670;13.544;2023-07-31T06:10:38;6.70;;;4.70;;
21334;SDS011;69435;52.670;13.544;2023-07-31T06:13:24;8.17;;;4.40;;
21334;SDS011;69435;52.670;13.544;2023-07-31T06:16:10;6.60;;;4.57;;
21334;SDS011;69435;52.670;13.544;2023-07-31T06:18:56;6.07;;;4.30;;
21334;SDS011;69435;52.670;13.544;2023-07-31T06:21:42;6.33;;;3.87;;
21334;SDS011;69435;52.670;13.544;2023-07-31T06:24:29;4.37;;;3.90;;
21334;SDS011;69435;52.670;13.544;2023-07-31T06:27:15;5.40;;;4.20;;
21334;SDS011;69435;52.670;13.544;2023-07-31T06:30:01;4.57;;;4.23;;
21334;SDS011;69435;52.670;13.544;2023-07-31T06:32:48;6.30;;;4.00;;
21334;SDS011;69435;52.670;13.544;2023-07-31T06:35:34;4.70;;;3.87;;
21334;SDS011;69435;52.670;13.544;2023-07-31T06:38:27;3.87;;;3.57;;
21334;SDS011;69435;52.670;13.544;2023-07-31T06:41:13;3.70;;;3.43;;
21334;SDS011;69435;52.670;13.544;2023-07-31T06:43:59;5.30;;;3.43;;
21334;SDS011;69435;52.670;13.544;2023-07-31T06:46:45;3.90;;;3.60;;
21334;SDS011;69435;52.670;13.544;2023-07-31T06:49:31;4.30;;;3.77;;
21334;SDS011;69435;52.670;13.544;2023-07-31T06:52:17;6.07;;;3.37;;
21334;SDS011;69435;52.670;13.544;2023-07-31T06:55:04;4.53;;;3.43;;
21334;SDS011;69435;52.670;13.544;2023-07-31T06:58:05;8.00;;;3.70;;
21334;SDS011;69435;52.670;13.544;2023-07-31T07:00:51;3.93;;;3.63;;
21334;SDS011;69435;52.670;13.544;2023-07-31T07:03:37;4.33;;;3.33;;
21334;SDS011;69435;52.670;13.544;2023-07-31T07:06:23;4.90;;;3.40;;
21334;SDS011;69435;52.670;13.544;2023-07-31T07:09:09;3.37;;;3.07;;
21334;SDS011;69435;52.670;13.544;2023-07-31T07:11:55;4.07;;;2.97;;
21334;SDS011;69435;52.670;13.544;2023-07-31T07:14:41;7.47;;;3.40;;
21334;SDS011;69435;52.670;13.544;2023-07-31T07:17:27;4.43;;;3.40;;
21334;SDS011;69435;52.670;13.544;2023-07-31T07:20:17;3.77;;;3.40;;
21334;SDS011;69435;52.670;13.544;2023-07-31T07:23:05;4.13;;;2.77;;
21334;SDS011;69435;52.670;13.544;2023-07-31T07:25:51;4.20;;;3.07;;
21334;SDS011;69435;52.670;13.544;2023-07-31T07:28:37;3.10;;;2.80;;
21334;SDS011;69435;52.670;13.544;2023-07-31T07:31:23;3.40;;;3.13;;
21334;SDS011;69435;52.670;13.544;2023-07-31T07:34:09;3.43;;;3.13;;
21334;SDS011;69435;52.670;13.544;2023-07-31T07:36:55;3.90;;;2.97;;
21334;SDS011;69435;52.670;13.544;2023-07-31T07:39:42;5.50;;;3.07;;
21334;SDS011;69435;52.670;13.544;2023-07-31T07:42:28;3.47;;;3.13;;
21334;SDS011;69435;52.670;13.544;2023-07-31T07:45:14;3.10;;;2.90;;
21334;SDS011;69435;52.670;13.544;2023-07-31T07:48:01;8.43;;;3.33;;
21334;SDS011;69435;52.670;13.544;2023-07-31T07:50:48;3.40;;;3.03;;
21334;SDS011;69435;52.670;13.544;2023-07-31T07:53:34;3.17;;;2.90;;
21334;SDS011;69435;52.670;13.544;2023-07-31T07:56:20;4.03;;;3.47;;
21334;SDS011;69435;52.670;13.544;2023-07-31T07:59:06;4.50;;;3.20;;
21334;SDS011;69435;52.670;13.544;2023-07-31T08:01:52;3.13;;;2.93;;
21334;SDS011;69435;52.670;13.544;2023-07-31T08:04:38;4.07;;;3.20;;
21334;SDS011;69435;52.670;13.544;2023-07-31T08:07:24;4.57;;;3.10;;
21334;SDS011;69435;52.670;13.544;2023-07-31T08:10:10;5.70;;;2.93;;
21334;SDS011;69435;52.670;13.544;2023-07-31T08:12:56;4.67;;;2.93;;
21334;SDS011;69435;52.670;13.544;2023-07-31T08:15:42;3.83;;;2.67;;
21334;SDS011;69435;52.670;13.544;2023-07-31T08:18:30;3.70;;;3.37;;
21334;SDS011;69435;52.670;13.544;2023-07-31T08:21:17;9.17;;;2.30;;
21334;SDS011;69435;52.670;13.544;2023-07-31T08:24:03;3.13;;;2.67;;
21334;SDS011;69435;52.670;13.544;2023-07-31T08:26:49;3.00;;;2.67;;
21334;SDS011;69435;52.670;13.544;2023-07-31T08:29:35;3.33;;;2.63;;
21334;SDS011;69435;52.670;13.544;2023-07-31T08:32:21;2.67;;;2.50;;
21334;SDS011;69435;52.670;13.544;2023-07-31T08:35:07;4.20;;;2.73;;
21334;SDS011;69435;52.670;13.544;2023-07-31T08:37:54;2.83;;;2.30;;
21334;SDS011;69435;52.670;13.544;2023-07-31T08:40:40;4.20;;;2.10;;
21334;SDS011;69435;52.670;13.544;2023-07-31T08:43:26;3.23;;;2.93;;
21334;SDS011;69435;52.670;13.544;2023-07-31T08:46:13;4.13;;;2.37;;
21334;SDS011;69435;52.670;13.544;2023-07-31T08:48:59;3.43;;;2.50;;
21334;SDS011;69435;52.670;13.544;2023-07-31T08:51:50;2.77;;;2.50;;
21334;SDS011;69435;52.670;13.544;2023-07-31T08:54:39;2.53;;;2.20;;
21334;SDS011;69435;52.670;13.544;2023-07-31T08:57:26;2.30;;;2.20;;
21334;SDS011;69435;52.670;13.544;2023-07-31T09:00:13;2.30;;;2.10;;
21334;SDS011;69435;52.670;13.544;2023-07-31T09:05:55;2.67;;;2.47;;
21334;SDS011;69435;52.670;13.544;2023-07-31T09:08:44;3.93;;;2.60;;
21334;SDS011;69435;52.670;13.544;2023-07-31T09:11:30;3.27;;;2.37;;
21334;SDS011;69435;52.670;13.544;2023-07-31T09:14:16;2.90;;;2.60;;
21334;SDS011;69435;52.670;13.544;2023-07-31T09:17:04;3.83;;;2.60;;
21334;SDS011;69435;52.670;13.544;2023-07-31T09:19:50;2.63;;;2.43;;
21334;SDS011;69435;52.670;13.544;2023-07-31T09:22:37;3.17;;;2.50;;
21334;SDS011;69435;52.670;13.544;2023-07-31T09:25:26;3.50;;;2.80;;
21334;SDS011;69435;52.670;13.544;2023-07-31T09:28:12;2.27;;;2.10;;
21334;SDS011;69435;52.670;13.544;2023-07-31T09:30:58;2.47;;;2.37;;
21334;SDS011;69435;52.670;13.544;2023-07-31T09:33:54;1.70;;;1.60;;
21334;SDS011;69435;52.670;13.544;2023-07-31T09:39:46;2.60;;;1.40;;
21334;SDS011;69435;52.670;13.544;2023-07-31T09:42:33;2.07;;;1.97;;
21334;SDS011;69435;52.670;13.544;2023-07-31T09:45:20;1.77;;;1.70;;
21334;SDS011;69435;52.670;13.544;2023-07-31T09:48:24;2.00;;;1.90;;
21334;SDS011;69435;52.670;13.544;2023-07-31T09:51:13;1.63;;;1.53;;
21334;SDS011;69435;52.670;13.544;2023-07-31T09:54:00;4.60;;;1.90;;
21334;SDS011;69435;52.670;13.544;2023-07-31T09:56:47;2.20;;;2.10;;
21334;SDS011;69435;52.670;13.544;2023-07-31T09:59:34;1.97;;;1.87;;
21334;SDS011;69435;52.670;13.544;2023-07-31T10:02:21;2.33;;;1.83;;
21334;SDS011;69435;52.670;13.544;2023-07-31T10:05:08;2.73;;;2.13;;
21334;SDS011;69435;52.670;13.544;2023-07-31T10:07:54;1.80;;;1.70;;
21334;SDS011;69435;52.670;13.544;2023-07-31T10:10:42;2.17;;;1.60;;
21334;SDS011;69435;52.670;13.544;2023-07-31T10:13:30;1.97;;;1.53;;
21334;SDS011;69435;52.670;13.544;2023-07-31T10:16:18;2.27;;;2.17;;
21334;SDS011;69435;52.670;13.544;2023-07-31T10:19:06;2.07;;;1.97;;
21334;SDS011;69435;52.670;13.544;2023-07-31T10:21:53;1.90;;;1.80;;
21334;SDS011;69435;52.670;13.544;2023-07-31T10:24:42;2.23;;;2.03;;
21334;SDS011;69435;52.670;13.544;2023-07-31T10:27:31;1.73;;;1.63;;
21334;SDS011;69435;52.670;13.544;2023-07-31T10:30:32;1.90;;;1.80;;
21334;SDS011;69435;52.670;13.544;2023-07-31T10:33:20;2.07;;;1.97;;
21334;SDS011;69435;52.670;13.544;2023-07-31T10:36:13;2.00;;;1.80;;
21334;SDS011;69435;52.670;13.544;2023-07-31T10:39:03;2.53;;;1.90;;
21334;SDS011;69435;52.670;13.544;2023-07-31T10:41:50;2.30;;;2.10;;
21334;SDS011;69435;52.670;13.544;2023-07-31T10:44:37;4.10;;;2.37;;
21334;SDS011;69435;52.670;13.544;2023-07-31T10:47:23;3.00;;;2.70;;
21334;SDS011;69435;52.670;13.544;2023-07-31T10:50:12;2.97;;;2.70;;
21334;SDS011;69435;52.670;13.544;2023-07-31T10:53:05;2.47;;;2.37;;
21334;SDS011;69435;52.670;13.544;2023-07-31T10:55:52;2.97;;;2.77;;
21334;SDS011;69435;52.670;13.544;2023-07-31T10:58:43;4.20;;;3.27;;
21334;SDS011;69435;52.670;13.544;2023-07-31T11:01:50;2.97;;;2.73;;
21334;SDS011;69435;52.670;13.544;2023-07-31T11:04:43;3.80;;;3.50;;
21334;SDS011;69435;52.670;13.544;2023-07-31T11:07:45;5.87;;;3.50;;
21334;SDS011;69435;52.670;13.544;2023-07-31T11:10:34;4.60;;;3.50;;
21334;SDS011;69435;52.670;13.544;2023-07-31T11:13:20;5.53;;;3.77;;
21334;SDS011;69435;52.670;13.544;2023-07-31T11:16:06;3.40;;;3.10;;
21334;SDS011;69435;52.670;13.544;2023-07-31T11:18:53;4.67;;;3.03;;
21334;SDS011;69435;52.670;13.544;2023-07-31T11:21:41;3.67;;;2.83;;
21334;SDS011;69435;52.670;13.544;2023-07-31T11:24:28;5.60;;;2.90;;
21334;SDS011;69435;52.670;13.544;2023-07-31T11:27:14;3.67;;;2.87;;
21334;SDS011;69435;52.670;13.544;2023-07-31T11:30:01;3.50;;;3.20;;
21334;SDS011;69435;52.670;13.544;2023-07-31T11:32:49;5.47;;;2.80;;
21334;SDS011;69435;52.670;13.544;2023-07-31T11:35:41;3.70;;;2.83;;
21334;SDS011;69435;52.670;13.544;2023-07-31T11:38:31;6.63;;;2.90;;
21334;SDS011;69435;52.670;13.544;2023-07-31T11:41:19;2.90;;;2.70;;
21334;SDS011;69435;52.670;13.544;2023-07-31T11:44:05;3.00;;;2.70;;
21334;SDS011;69435;52.670;13.544;2023-07-31T11:46:51;3.20;;;2.90;;
21334;SDS011;69435;52.670;13.544;2023-07-31T11:49:37;3.30;;;3.03;;
21334;SDS011;69435;52.670;13.544;2023-07-31T11:52:23;4.00;;;2.53;;
21334;SDS011;69435;52.670;13.544;2023-07-31T11:55:11;2.90;;;2.60;;
21334;SDS011;69435;52.670;13.544;2023-07-31T11:58:00;3.00;;;2.80;;
21334;SDS011;69435;52.670;13.544;2023-07-31T12:00:46;2.90;;;2.60;;
21334;SDS011;69435;52.670;13.544;2023-07-31T12:03:34;4.07;;;2.80;;
21334;SDS011;69435;52.670;13.544;2023-07-31T12:06:21;3.20;;;2.90;;
21334;SDS011;69435;52.670;13.544;2023-07-31T12:09:07;3.77;;;2.73;;
21334;SDS011;69435;52.670;13.544;2023-07-31T12:11:53;3.47;;;2.80;;
21334;SDS011;69435;52.670;13.544;2023-07-31T12:14:41;3.03;;;2.77;;
21334;SDS011;69435;52.670;13.544;2023-07-31T12:17:28;2.80;;;2.60;;
21334;SDS011;69435;52.670;13.544;2023-07-31T12:20:14;3.30;;;3.00;;
21334;SDS011;69435;52.670;13.544;2023-07-31T12:23:01;2.83;;;2.60;;
21334;SDS011;69435;52.670;13.544;2023-07-31T12:25:48;4.80;;;2.50;;
21334;SDS011;69435;52.670;13.544;2023-07-31T12:29:06;2.70;;;2.50;;
21334;SDS011;69435;52.670;13.544;2023-07-31T12:31:53;2.60;;;2.40;;
21334;SDS011;69435;52.670;13.544;2023-07-31T12:34:42;3.07;;;2.40;;
21334;SDS011;69435;52.670;13.544;2023-07-31T12:37:29;2.93;;;2.73;;
21334;SDS011;69435;52.670;13.544;2023-07-31T12:40:15;3.63;;;2.53;;
21334;SDS011;69435;52.670;13.544;2023-07-31T12:43:01;5.10;;;3.00;;
21334;SDS011;69435;52.670;13.544;2023-07-31T12:45:48;2.80;;;2.60;;
21334;SDS011;69435;52.670;13.544;2023-07-31T12:48:35;3.10;;;2.80;;
21334;SDS011;69435;52.670;13.544;2023-07-31T12:51:22;3.00;;;2.57;;
21334;SDS011;69435;52.670;13.544;2023-07-31T12:54:08;3.40;;;3.03;;
21334;SDS011;69435;52.670;13.544;2023-07-31T12:56:54;5.83;;;2.90;;
21334;SDS011;69435;52.670;13.544;2023-07-31T12:59:40;3.80;;;2.80;;
21334;SDS011;69435;52.670;13.544;2023-07-31T13:02:26;7.00;;;3.43;;
21334;SDS011;69435;52.670;13.544;2023-07-31T13:05:13;3.30;;;3.00;;
21334;SDS011;69435;52.670;13.544;2023-07-31T13:07:59;3.30;;;3.00;;
21334;SDS011;69435;52.670;13.544;2023-07-31T13:10:45;5.30;;;3.53;;
21334;SDS011;69435;52.670;13.544;2023-07-31T13:13:32;3.17;;;2.83;;
21334;SDS011;69435;52.670;13.544;2023-07-31T13:16:18;4.43;;;3.40;;
21334;SDS011;69435;52.670;13.544;2023-07-31T13:19:04;3.57;;;3.27;;
21334;SDS011;69435;52.670;13.544;2023-07-31T13:21:50;6.53;;;3.43;;
21334;SDS011;69435;52.670;13.544;2023-07-31T13:24:35;4.27;;;3.37;;
21334;SDS011;69435;52.670;13.544;2023-07-31T13:27:23;4.10;;;3.20;;
21334;SDS011;69435;52.670;13.544;2023-07-31T13:30:09;3.30;;;3.03;;
21334;SDS011;69435;52.670;13.544;2023-07-31T13:32:55;4.37;;;3.00;;
21334;SDS011;69435;52.670;13.544;2023-07-31T13:35:41;5.20;;;3.17;;
21334;SDS011;69435;52.670;13.544;2023-07-31T13:38:27;3.43;;;3.13;;
21334;SDS011;69435;52.670;13.544;2023-07-31T13:41:13;3.50;;;3.20;;
21334;SDS011;69435;52.670;13.544;2023-07-31T13:43:59;3.33;;;3.03;;
21334;SDS011;69435;52.670;13.544;2023-07-31T13:46:45;2.87;;;2.67;;
21334;SDS011;69435;52.670;13.544;2023-07-31T13:49:31;3.47;;;3.17;;
21334;SDS011;69435;52.670;13.544;2023-07-31T13:52:18;2.93;;;2.33;;
21334;SDS011;69435;52.670;13.544;2023-07-31T13:55:04;2.63;;;2.40;;
21334;SDS011;69435;52.670;13.544;2023-07-31T13:57:51;2.60;;;2.37;;
21334;SDS011;69435;52.670;13.544;2023-07-31T14:00:38;3.53;;;2.60;;
21334;SDS011;69435;52.670;13.544;2023-07-31T14:03:24;3.13;;;2.60;;
21334;SDS011;69435;52.670;13.544;2023-07-31T14:06:10;2.63;;;2.23;;
21334;SDS011;69435;52.670;13.544;2023-07-31T14:08:56;4.43;;;3.00;;
21334;SDS011;69435;52.670;13.544;2023-07-31T14:11:42;3.67;;;2.03;;
21334;SDS011;69435;52.670;13.544;2023-07-31T14:14:28;3.53;;;2.30;;
21334;SDS011;69435;52.670;13.544;2023-07-31T14:17:14;3.80;;;2.60;;
21334;SDS011;69435;52.670;13.544;2023-07-31T14:20:02;2.33;;;2.23;;
21334;SDS011;69435;52.670;13.544;2023-07-31T14:22:48;4.87;;;2.60;;
21334;SDS011;69435;52.670;13.544;2023-07-31T14:25:34;4.57;;;2.57;;
21334;SDS011;69435;52.670;13.544;2023-07-31T14:28:20;3.87;;;2.27;;
21334;SDS011;69435;52.670;13.544;2023-07-31T14:31:06;3.87;;;2.90;;
21334;SDS011;69435;52.670;13.544;2023-07-31T14:33:52;2.73;;;2.53;;
21334;SDS011;69435;52.670;13.544;2023-07-31T14:36:38;3.07;;;2.80;;
21334;SDS011;69435;52.670;13.544;2023-07-31T14:39:24;2.90;;;2.70;;
21334;SDS011;69435;52.670;13.544;2023-07-31T14:42:10;2.17;;;2.00;;
21334;SDS011;69435;52.670;13.544;2023-07-31T14:44:56;3.77;;;3.30;;
21334;SDS011;69435;52.670;13.544;2023-07-31T14:47:42;2.93;;;2.40;;
21334;SDS011;69435;52.670;13.544;2023-07-31T14:50:28;3.20;;;2.70;;
21334;SDS011;69435;52.670;13.544;2023-07-31T14:53:14;2.40;;;2.20;;
21334;SDS011;69435;52.670;13.544;2023-07-31T14:56:00;3.50;;;2.70;;
21334;SDS011;69435;52.670;13.544;2023-07-31T14:58:46;2.43;;;2.33;;
21334;SDS011;69435;52.670;13.544;2023-07-31T15:01:33;2.37;;;1.87;;
21334;SDS011;69435;52.670;13.544;2023-07-31T15:04:19;2.73;;;2.53;;
21334;SDS011;69435;52.670;13.544;2023-07-31T15:07:06;2.50;;;2.30;;
21334;SDS011;69435;52.670;13.544;2023-07-31T15:09:52;3.17;;;2.57;;
21334;SDS011;69435;52.670;13.544;2023-07-31T15:12:58;4.23;;;2.50;;
21334;SDS011;69435;52.670;13.544;2023-07-31T15:15:46;3.50;;;2.67;;
21334;SDS011;69435;52.670;13.544;2023-07-31T15:18:32;2.60;;;2.40;;
21334;SDS011;69435;52.670;13.544;2023-07-31T15:21:18;4.33;;;2.40;;
21334;SDS011;69435;52.670;13.544;2023-07-31T15:24:04;3.47;;;2.67;;
21334;SDS011;69435;52.670;13.544;2023-07-31T15:26:50;3.97;;;2.47;;
21334;SDS011;69435;52.670;13.544;2023-07-31T15:29:36;5.80;;;2.50;;
21334;SDS011;69435;52.670;13.544;2023-07-31T15:32:22;4.00;;;2.40;;
21334;SDS011;69435;52.670;13.544;2023-07-31T15:35:09;2.50;;;2.30;;
21334;SDS011;69435;52.670;13.544;2023-07-31T15:37:55;2.33;;;2.13;;
21334;SDS011;69435;52.670;13.544;2023-07-31T15:40:40;2.60;;;2.40;;
21334;SDS011;69435;52.670;13.544;2023-07-31T15:43:27;2.60;;;2.10;;
21334;SDS011;69435;52.670;13.544;2023-07-31T15:46:14;3.10;;;2.60;;
21334;SDS011;69435;52.670;13.544;2023-07-31T15:49:00;2.47;;;2.27;;
21334;SDS011;69435;52.670;13.544;2023-07-31T15:51:46;2.73;;;2.40;;
21334;SDS011;69435;52.670;13.544;2023-07-31T15:54:32;2.97;;;2.27;;
21334;SDS011;69435;52.670;13.544;2023-07-31T15:57:18;3.07;;;2.37;;
21334;SDS011;69435;52.670;13.544;2023-07-31T16:00:05;3.60;;;2.83;;
21334;SDS011;69435;52.670;13.544;2023-07-31T16:02:53;2.90;;;2.43;;
21334;SDS011;69435;52.670;13.544;2023-07-31T16:05:39;2.97;;;2.77;;
21334;SDS011;69435;52.670;13.544;2023-07-31T16:08:26;3.50;;;2.40;;
21334;SDS011;69435;52.670;13.544;2023-07-31T16:11:12;3.40;;;3.10;;
21334;SDS011;69435;52.670;13.544;2023-07-31T16:13:58;2.23;;;2.00;;
21334;SDS011;69435;52.670;13.544;2023-07-31T16:16:44;4.00;;;2.80;;
21334;SDS011;69435;52.670;13.544;2023-07-31T16:19:31;3.00;;;2.70;;
21334;SDS011;69435;52.670;13.544;2023-07-31T16:22:17;2.90;;;2.70;;
21334;SDS011;69435;52.670;13.544;2023-07-31T16:25:03;3.67;;;2.63;;
21334;SDS011;69435;52.670;13.544;2023-07-31T16:27:50;3.37;;;2.60;;
21334;SDS011;69435;52.670;13.544;2023-07-31T16:30:36;2.83;;;2.60;;
21334;SDS011;69435;52.670;13.544;2023-07-31T16:33:23;4.43;;;2.83;;
21334;SDS011;69435;52.670;13.544;2023-07-31T16:36:09;2.63;;;2.43;;
21334;SDS011;69435;52.670;13.544;2023-07-31T16:38:55;2.70;;;2.50;;
21334;SDS011;69435;52.670;13.544;2023-07-31T16:41:41;3.37;;;3.07;;
21334;SDS011;69435;52.670;13.544;2023-07-31T16:44:27;4.00;;;2.93;;